Terminal Aerodrome Forecast
Issued by NWS Tampa Bay Area, FL

Home | Current Version | Previous Version | Text Only | Print | Product List | Glossary On
Versions: 1 2 3 4 5 6 7 8 9 10 11 12 13 14 15
000
FTUS42 KTBW 150500 RRA
TAFSRQ
TAF
KSRQ 150541Z 1506/1606 11004KT P6SM FEW020 SCT120
     FM151400 14006KT P6SM SCT025 SCT120
     FM151800 24008KT P6SM VCTS SCT035CB SCT120
     FM152100 27009KT P6SM SCT040 SCT120 SCT250
     FM160000 31005KT P6SM FEW040 SCT250
     FM160200 VRB03KT P6SM SCT250=

USA.gov is the U.S. government's official web portal to all federal, state and local government web resources and services.